메인 페이지
METAR-TAF:

METAR-TAF

공항 :

푸앵타피트르 국제공항

Pointe-à-Pitre, 과들루프

위도: 16-16N, 경도: 061-31W, 고도: 11m

현재 날씨관측

예보는 43분 전, 16:30시(UTC)에 발표되었습니다.
동남동12kt
온도 29°C
습도 70%
기압 1014 hPa
시정 10km 이상

METAR: TFFR 141630Z AUTO 11012KT 9999 FEW030/// BKN140/// OVC160/// ///CB 29/23 Q1014 TEMPO 1500 SHRA BECMG SCT025 BKN060

시각: 13:13 (17:13 UTC)

예보

예보는 7 시간 13분 전, 10:00시(UTC)에 발표되었습니다.
예보 대상 시간: 14일 12시부터 15일 12시까지 (UTC)
12kt
시정 10km 이상
고도 2500ft 상공 구름 보통
고도 6000ft 상공 구름 많음
일시적
14일 12시부터 14일 18시까지 (UTC)
시정: 1500m
고도 1500ft 상공 구름 조금, 적란운.
고도 1800ft 상공 구름 많음, 타워링 적운.
소나기
확률 30% :
일시적
14일 22시부터 15일 12시까지 (UTC)
시정: 4000m
고도 2000ft 상공 구름 보통, 타워링 적운.
소나기

TAF: TFFR 141000Z 1412/1512 10012KT 9999 SCT025 BKN060 TEMPO 1412/1418 1500 SHRA FEW015CB BKN018TCU PROB30 TEMPO 1422/1512 4000 SHRA SCT020TCU

4,000개 이상의 공항 관측 자료 및 예보 (METAR 및 TAF 보고).

지도상에서 검색 가능한 기상관측소가 노란 점과 빨간 점으로 표시되어 있습니다.

기상관측소 명을 보려면 표시 위로 마우스를 이동하세요.

날씨 관측과 예보를 보려면 클릭하세요.

지도 변경 : 확대하려면 엑스 표시가 있는 녹색 버튼, 축소하려면 빼기 표시가 있는 녹색 버튼, 다음 페이지의 지도를 보려면 녹색 화살표를 클릭하세요.


METAR-TAF: